sensor_id;sensor_type;location;lat;lon;timestamp;P1;durP1;ratioP1;P2;durP2;ratioP2
19605;SDS011;9950;50.168;8.210;2023-07-13T00:01:04;3.70;;;2.13;;
19605;SDS011;9950;50.168;8.210;2023-07-13T00:03:32;1.98;;;1.77;;
19605;SDS011;9950;50.168;8.210;2023-07-13T00:06:00;3.22;;;1.92;;
19605;SDS011;9950;50.168;8.210;2023-07-13T00:08:29;3.25;;;1.80;;
19605;SDS011;9950;50.168;8.210;2023-07-13T00:10:59;3.58;;;1.85;;
19605;SDS011;9950;50.168;8.210;2023-07-13T00:13:26;2.75;;;1.85;;
19605;SDS011;9950;50.168;8.210;2023-07-13T00:15:53;4.80;;;2.10;;
19605;SDS011;9950;50.168;8.210;2023-07-13T00:18:21;3.92;;;2.10;;
19605;SDS011;9950;50.168;8.210;2023-07-13T00:20:48;2.13;;;1.70;;
19605;SDS011;9950;50.168;8.210;2023-07-13T00:23:15;2.88;;;1.90;;
19605;SDS011;9950;50.168;8.210;2023-07-13T00:25:44;3.35;;;1.77;;
19605;SDS011;9950;50.168;8.210;2023-07-13T00:28:12;2.72;;;1.77;;
19605;SDS011;9950;50.168;8.210;2023-07-13T00:30:39;4.95;;;2.10;;
19605;SDS011;9950;50.168;8.210;2023-07-13T00:33:07;4.43;;;1.95;;
19605;SDS011;9950;50.168;8.210;2023-07-13T00:35:34;5.43;;;1.88;;
19605;SDS011;9950;50.168;8.210;2023-07-13T00:38:01;2.72;;;2.42;;
19605;SDS011;9950;50.168;8.210;2023-07-13T00:40:28;4.28;;;2.30;;
19605;SDS011;9950;50.168;8.210;2023-07-13T00:42:57;3.17;;;2.15;;
19605;SDS011;9950;50.168;8.210;2023-07-13T00:48:11;2.50;;;1.67;;
19605;SDS011;9950;50.168;8.210;2023-07-13T00:50:38;2.22;;;1.70;;
19605;SDS011;9950;50.168;8.210;2023-07-13T00:53:07;3.47;;;2.13;;
19605;SDS011;9950;50.168;8.210;2023-07-13T00:55:34;6.22;;;2.20;;
19605;SDS011;9950;50.168;8.210;2023-07-13T00:58:02;2.30;;;2.10;;
19605;SDS011;9950;50.168;8.210;2023-07-13T01:00:30;4.57;;;1.90;;
19605;SDS011;9950;50.168;8.210;2023-07-13T01:02:57;3.42;;;1.80;;
19605;SDS011;9950;50.168;8.210;2023-07-13T01:05:25;3.65;;;2.15;;
19605;SDS011;9950;50.168;8.210;2023-07-13T01:07:52;3.15;;;2.20;;
19605;SDS011;9950;50.168;8.210;2023-07-13T01:10:21;4.72;;;2.17;;
19605;SDS011;9950;50.168;8.210;2023-07-13T01:12:48;4.63;;;1.80;;
19605;SDS011;9950;50.168;8.210;2023-07-13T01:15:34;7.35;;;3.42;;
19605;SDS011;9950;50.168;8.210;2023-07-13T01:18:02;3.92;;;2.17;;
19605;SDS011;9950;50.168;8.210;2023-07-13T01:20:31;5.10;;;2.60;;
19605;SDS011;9950;50.168;8.210;2023-07-13T01:23:03;2.03;;;1.60;;
19605;SDS011;9950;50.168;8.210;2023-07-13T01:25:31;4.63;;;1.83;;
19605;SDS011;9950;50.168;8.210;2023-07-13T01:27:58;4.85;;;1.83;;
19605;SDS011;9950;50.168;8.210;2023-07-13T01:30:25;3.40;;;1.70;;
19605;SDS011;9950;50.168;8.210;2023-07-13T01:32:52;3.70;;;1.80;;
19605;SDS011;9950;50.168;8.210;2023-07-13T01:35:19;1.90;;;1.63;;
19605;SDS011;9950;50.168;8.210;2023-07-13T01:37:47;5.05;;;2.13;;
19605;SDS011;9950;50.168;8.210;2023-07-13T01:40:15;2.75;;;1.60;;
19605;SDS011;9950;50.168;8.210;2023-07-13T01:42:42;3.35;;;1.90;;
19605;SDS011;9950;50.168;8.210;2023-07-13T01:45:09;5.40;;;2.08;;
19605;SDS011;9950;50.168;8.210;2023-07-13T01:47:36;1.95;;;1.75;;
19605;SDS011;9950;50.168;8.210;2023-07-13T01:50:04;5.00;;;2.10;;
19605;SDS011;9950;50.168;8.210;2023-07-13T01:52:31;3.60;;;1.92;;
19605;SDS011;9950;50.168;8.210;2023-07-13T01:54:58;3.13;;;1.88;;
19605;SDS011;9950;50.168;8.210;2023-07-13T01:57:26;3.75;;;1.92;;
19605;SDS011;9950;50.168;8.210;2023-07-13T01:59:54;4.00;;;1.92;;
19605;SDS011;9950;50.168;8.210;2023-07-13T02:02:21;2.97;;;2.05;;
19605;SDS011;9950;50.168;8.210;2023-07-13T02:04:48;4.20;;;1.80;;
19605;SDS011;9950;50.168;8.210;2023-07-13T02:07:15;5.75;;;1.92;;
19605;SDS011;9950;50.168;8.210;2023-07-13T02:09:42;6.80;;;2.17;;
19605;SDS011;9950;50.168;8.210;2023-07-13T02:12:09;3.58;;;2.00;;
19605;SDS011;9950;50.168;8.210;2023-07-13T02:14:38;2.70;;;1.83;;
19605;SDS011;9950;50.168;8.210;2023-07-13T02:17:05;2.92;;;2.00;;
19605;SDS011;9950;50.168;8.210;2023-07-13T02:19:32;3.50;;;2.20;;
19605;SDS011;9950;50.168;8.210;2023-07-13T02:21:59;3.00;;;2.13;;
19605;SDS011;9950;50.168;8.210;2023-07-13T02:24:26;4.93;;;2.40;;
19605;SDS011;9950;50.168;8.210;2023-07-13T02:26:53;4.78;;;2.00;;
19605;SDS011;9950;50.168;8.210;2023-07-13T02:29:20;4.55;;;2.08;;
19605;SDS011;9950;50.168;8.210;2023-07-13T02:31:49;4.20;;;2.17;;
19605;SDS011;9950;50.168;8.210;2023-07-13T02:34:16;3.55;;;2.05;;
19605;SDS011;9950;50.168;8.210;2023-07-13T02:36:43;4.72;;;2.40;;
19605;SDS011;9950;50.168;8.210;2023-07-13T02:39:11;3.28;;;2.03;;
19605;SDS011;9950;50.168;8.210;2023-07-13T02:41:38;3.22;;;2.05;;
19605;SDS011;9950;50.168;8.210;2023-07-13T02:44:05;3.60;;;1.92;;
19605;SDS011;9950;50.168;8.210;2023-07-13T02:46:34;3.42;;;2.28;;
19605;SDS011;9950;50.168;8.210;2023-07-13T02:49:03;3.67;;;2.03;;
19605;SDS011;9950;50.168;8.210;2023-07-13T02:51:30;4.65;;;2.20;;
19605;SDS011;9950;50.168;8.210;2023-07-13T02:53:59;4.45;;;2.15;;
19605;SDS011;9950;50.168;8.210;2023-07-13T02:56:27;4.65;;;2.30;;
19605;SDS011;9950;50.168;8.210;2023-07-13T02:58:54;5.80;;;2.17;;
19605;SDS011;9950;50.168;8.210;2023-07-13T03:01:21;2.92;;;2.28;;
19605;SDS011;9950;50.168;8.210;2023-07-13T03:03:48;3.13;;;2.03;;
19605;SDS011;9950;50.168;8.210;2023-07-13T03:06:17;3.95;;;2.28;;
19605;SDS011;9950;50.168;8.210;2023-07-13T03:08:44;4.72;;;2.17;;
19605;SDS011;9950;50.168;8.210;2023-07-13T03:11:13;2.60;;;2.13;;
19605;SDS011;9950;50.168;8.210;2023-07-13T03:13:41;4.43;;;2.10;;
19605;SDS011;9950;50.168;8.210;2023-07-13T03:16:09;3.50;;;2.28;;
19605;SDS011;9950;50.168;8.210;2023-07-13T03:18:36;5.53;;;2.47;;
19605;SDS011;9950;50.168;8.210;2023-07-13T03:21:04;4.82;;;2.03;;
19605;SDS011;9950;50.168;8.210;2023-07-13T03:23:32;6.50;;;2.20;;
19605;SDS011;9950;50.168;8.210;2023-07-13T03:26:04;4.60;;;2.17;;
19605;SDS011;9950;50.168;8.210;2023-07-13T03:28:31;4.28;;;1.90;;
19605;SDS011;9950;50.168;8.210;2023-07-13T03:30:59;4.80;;;2.22;;
19605;SDS011;9950;50.168;8.210;2023-07-13T03:33:26;4.50;;;2.33;;
19605;SDS011;9950;50.168;8.210;2023-07-13T03:35:53;5.25;;;2.40;;
19605;SDS011;9950;50.168;8.210;2023-07-13T03:38:20;3.63;;;2.30;;
19605;SDS011;9950;50.168;8.210;2023-07-13T03:40:48;5.18;;;2.08;;
19605;SDS011;9950;50.168;8.210;2023-07-13T03:43:16;4.32;;;2.50;;
19605;SDS011;9950;50.168;8.210;2023-07-13T03:45:43;5.75;;;2.90;;
19605;SDS011;9950;50.168;8.210;2023-07-13T03:48:10;3.85;;;2.40;;
19605;SDS011;9950;50.168;8.210;2023-07-13T03:50:37;4.07;;;2.42;;
19605;SDS011;9950;50.168;8.210;2023-07-13T03:53:04;4.60;;;2.60;;
19605;SDS011;9950;50.168;8.210;2023-07-13T03:55:31;4.20;;;2.13;;
19605;SDS011;9950;50.168;8.210;2023-07-13T03:58:00;5.13;;;2.40;;
19605;SDS011;9950;50.168;8.210;2023-07-13T04:00:28;6.13;;;2.90;;
19605;SDS011;9950;50.168;8.210;2023-07-13T04:02:55;2.75;;;2.17;;
19605;SDS011;9950;50.168;8.210;2023-07-13T04:05:22;5.72;;;2.20;;
19605;SDS011;9950;50.168;8.210;2023-07-13T04:07:49;5.22;;;2.55;;
19605;SDS011;9950;50.168;8.210;2023-07-13T04:10:16;4.00;;;2.53;;
19605;SDS011;9950;50.168;8.210;2023-07-13T04:12:43;6.50;;;2.53;;
19605;SDS011;9950;50.168;8.210;2023-07-13T04:15:12;4.40;;;2.30;;
19605;SDS011;9950;50.168;8.210;2023-07-13T04:17:39;6.18;;;2.55;;
19605;SDS011;9950;50.168;8.210;2023-07-13T04:20:06;4.90;;;2.58;;
19605;SDS011;9950;50.168;8.210;2023-07-13T04:22:33;5.10;;;2.83;;
19605;SDS011;9950;50.168;8.210;2023-07-13T04:25:01;2.88;;;2.20;;
19605;SDS011;9950;50.168;8.210;2023-07-13T04:27:29;6.25;;;2.28;;
19605;SDS011;9950;50.168;8.210;2023-07-13T04:29:57;3.95;;;2.40;;
19605;SDS011;9950;50.168;8.210;2023-07-13T04:32:25;4.88;;;2.45;;
19605;SDS011;9950;50.168;8.210;2023-07-13T04:34:52;5.68;;;2.28;;
19605;SDS011;9950;50.168;8.210;2023-07-13T04:37:20;3.83;;;2.20;;
19605;SDS011;9950;50.168;8.210;2023-07-13T04:39:47;4.65;;;2.45;;
19605;SDS011;9950;50.168;8.210;2023-07-13T04:42:14;6.43;;;2.38;;
19605;SDS011;9950;50.168;8.210;2023-07-13T04:44:42;5.95;;;2.20;;
19605;SDS011;9950;50.168;8.210;2023-07-13T04:47:09;4.07;;;2.00;;
19605;SDS011;9950;50.168;8.210;2023-07-13T04:49:37;6.28;;;2.35;;
19605;SDS011;9950;50.168;8.210;2023-07-13T04:52:05;6.50;;;2.30;;
19605;SDS011;9950;50.168;8.210;2023-07-13T04:54:32;5.70;;;2.42;;
19605;SDS011;9950;50.168;8.210;2023-07-13T04:56:59;5.93;;;1.98;;
19605;SDS011;9950;50.168;8.210;2023-07-13T04:59:26;4.60;;;2.20;;
19605;SDS011;9950;50.168;8.210;2023-07-13T05:01:53;3.42;;;2.13;;
19605;SDS011;9950;50.168;8.210;2023-07-13T05:04:21;4.05;;;2.03;;
19605;SDS011;9950;50.168;8.210;2023-07-13T05:06:49;6.03;;;2.80;;
19605;SDS011;9950;50.168;8.210;2023-07-13T05:09:16;5.65;;;1.95;;
19605;SDS011;9950;50.168;8.210;2023-07-13T05:11:43;3.35;;;2.47;;
19605;SDS011;9950;50.168;8.210;2023-07-13T05:14:10;4.30;;;2.22;;
19605;SDS011;9950;50.168;8.210;2023-07-13T05:16:38;5.95;;;2.20;;
19605;SDS011;9950;50.168;8.210;2023-07-13T05:19:05;5.20;;;2.10;;
19605;SDS011;9950;50.168;8.210;2023-07-13T05:21:32;2.50;;;1.83;;
19605;SDS011;9950;50.168;8.210;2023-07-13T05:24:00;4.22;;;1.80;;
19605;SDS011;9950;50.168;8.210;2023-07-13T05:26:27;2.95;;;1.60;;
19605;SDS011;9950;50.168;8.210;2023-07-13T05:28:54;3.95;;;1.70;;
19605;SDS011;9950;50.168;8.210;2023-07-13T05:31:21;7.13;;;2.47;;
19605;SDS011;9950;50.168;8.210;2023-07-13T05:33:49;5.25;;;2.15;;
19605;SDS011;9950;50.168;8.210;2023-07-13T05:36:16;2.92;;;1.60;;
19605;SDS011;9950;50.168;8.210;2023-07-13T05:38:43;4.22;;;2.13;;
19605;SDS011;9950;50.168;8.210;2023-07-13T05:41:11;4.22;;;1.73;;
19605;SDS011;9950;50.168;8.210;2023-07-13T05:43:38;2.25;;;1.20;;
19605;SDS011;9950;50.168;8.210;2023-07-13T05:46:06;1.38;;;1.20;;
19605;SDS011;9950;50.168;8.210;2023-07-13T05:48:33;3.28;;;1.10;;
19605;SDS011;9950;50.168;8.210;2023-07-13T05:51:00;3.72;;;1.02;;
19605;SDS011;9950;50.168;8.210;2023-07-13T05:53:27;2.58;;;1.10;;
19605;SDS011;9950;50.168;8.210;2023-07-13T05:55:55;4.95;;;1.33;;
19605;SDS011;9950;50.168;8.210;2023-07-13T05:58:23;2.28;;;1.13;;
19605;SDS011;9950;50.168;8.210;2023-07-13T06:00:58;3.25;;;1.10;;
19605;SDS011;9950;50.168;8.210;2023-07-13T06:03:25;4.20;;;1.25;;
19605;SDS011;9950;50.168;8.210;2023-07-13T06:05:52;1.73;;;0.90;;
19605;SDS011;9950;50.168;8.210;2023-07-13T06:08:19;2.42;;;1.00;;
19605;SDS011;9950;50.168;8.210;2023-07-13T06:10:46;2.78;;;1.00;;
19605;SDS011;9950;50.168;8.210;2023-07-13T06:13:13;3.30;;;1.20;;
19605;SDS011;9950;50.168;8.210;2023-07-13T06:15:42;1.73;;;0.75;;
19605;SDS011;9950;50.168;8.210;2023-07-13T06:18:09;2.40;;;0.90;;
19605;SDS011;9950;50.168;8.210;2023-07-13T06:20:36;2.83;;;0.98;;
19605;SDS011;9950;50.168;8.210;2023-07-13T06:23:03;2.08;;;0.90;;
19605;SDS011;9950;50.168;8.210;2023-07-13T06:25:30;1.30;;;0.63;;
19605;SDS011;9950;50.168;8.210;2023-07-13T06:27:57;1.90;;;0.98;;
19605;SDS011;9950;50.168;8.210;2023-07-13T06:30:24;1.33;;;0.80;;
19605;SDS011;9950;50.168;8.210;2023-07-13T06:32:53;3.85;;;1.00;;
19605;SDS011;9950;50.168;8.210;2023-07-13T06:35:20;2.15;;;0.90;;
19605;SDS011;9950;50.168;8.210;2023-07-13T06:37:47;1.67;;;0.90;;
19605;SDS011;9950;50.168;8.210;2023-07-13T06:40:14;1.80;;;0.80;;
19605;SDS011;9950;50.168;8.210;2023-07-13T06:42:42;1.95;;;0.88;;
19605;SDS011;9950;50.168;8.210;2023-07-13T06:45:09;3.25;;;1.05;;
19605;SDS011;9950;50.168;8.210;2023-07-13T06:47:36;1.42;;;0.98;;
19605;SDS011;9950;50.168;8.210;2023-07-13T06:50:05;1.73;;;0.73;;
19605;SDS011;9950;50.168;8.210;2023-07-13T06:52:32;2.00;;;0.90;;
19605;SDS011;9950;50.168;8.210;2023-07-13T06:54:59;0.73;;;0.70;;
19605;SDS011;9950;50.168;8.210;2023-07-13T06:57:27;1.05;;;0.98;;
19605;SDS011;9950;50.168;8.210;2023-07-13T06:59:54;5.57;;;1.10;;
19605;SDS011;9950;50.168;8.210;2023-07-13T07:02:21;2.05;;;0.80;;
19605;SDS011;9950;50.168;8.210;2023-07-13T07:04:48;2.45;;;0.90;;
19605;SDS011;9950;50.168;8.210;2023-07-13T07:07:17;1.58;;;0.80;;
19605;SDS011;9950;50.168;8.210;2023-07-13T07:09:44;2.45;;;0.90;;
19605;SDS011;9950;50.168;8.210;2023-07-13T07:12:11;1.90;;;0.80;;
19605;SDS011;9950;50.168;8.210;2023-07-13T07:14:38;2.38;;;1.00;;
19605;SDS011;9950;50.168;8.210;2023-07-13T07:17:05;2.72;;;0.90;;
19605;SDS011;9950;50.168;8.210;2023-07-13T07:19:32;3.38;;;0.90;;
19605;SDS011;9950;50.168;8.210;2023-07-13T07:21:59;3.30;;;0.90;;
19605;SDS011;9950;50.168;8.210;2023-07-13T07:24:28;3.30;;;1.00;;
19605;SDS011;9950;50.168;8.210;2023-07-13T07:26:55;1.80;;;0.90;;
19605;SDS011;9950;50.168;8.210;2023-07-13T07:29:22;2.17;;;1.00;;
19605;SDS011;9950;50.168;8.210;2023-07-13T07:31:51;5.35;;;1.55;;
19605;SDS011;9950;50.168;8.210;2023-07-13T07:34:18;2.25;;;0.85;;
19605;SDS011;9950;50.168;8.210;2023-07-13T07:36:45;4.35;;;1.10;;
19605;SDS011;9950;50.168;8.210;2023-07-13T07:39:12;3.67;;;1.10;;
19605;SDS011;9950;50.168;8.210;2023-07-13T07:41:41;5.97;;;1.10;;
19605;SDS011;9950;50.168;8.210;2023-07-13T07:44:08;6.10;;;1.02;;
19605;SDS011;9950;50.168;8.210;2023-07-13T07:46:35;3.58;;;0.90;;
19605;SDS011;9950;50.168;8.210;2023-07-13T07:49:02;2.28;;;1.67;;
19605;SDS011;9950;50.168;8.210;2023-07-13T07:51:30;7.70;;;1.30;;
19605;SDS011;9950;50.168;8.210;2023-07-13T07:53:57;6.65;;;1.30;;
19605;SDS011;9950;50.168;8.210;2023-07-13T07:56:24;6.10;;;1.83;;
19605;SDS011;9950;50.168;8.210;2023-07-13T07:58:53;2.63;;;1.20;;
19605;SDS011;9950;50.168;8.210;2023-07-13T08:01:20;2.28;;;0.80;;
19605;SDS011;9950;50.168;8.210;2023-07-13T08:03:47;4.15;;;1.05;;
19605;SDS011;9950;50.168;8.210;2023-07-13T08:06:14;3.30;;;0.82;;
19605;SDS011;9950;50.168;8.210;2023-07-13T08:08:44;3.13;;;0.80;;
19605;SDS011;9950;50.168;8.210;2023-07-13T08:11:11;1.73;;;0.80;;
19605;SDS011;9950;50.168;8.210;2023-07-13T08:13:38;2.72;;;0.80;;
19605;SDS011;9950;50.168;8.210;2023-07-13T08:16:07;1.27;;;0.80;;
19605;SDS011;9950;50.168;8.210;2023-07-13T08:18:34;3.03;;;0.80;;
19605;SDS011;9950;50.168;8.210;2023-07-13T08:21:02;3.95;;;0.85;;
19605;SDS011;9950;50.168;8.210;2023-07-13T08:23:30;1.30;;;0.63;;
19605;SDS011;9950;50.168;8.210;2023-07-13T08:25:57;2.00;;;0.80;;
19605;SDS011;9950;50.168;8.210;2023-07-13T08:28:26;1.38;;;0.82;;
19605;SDS011;9950;50.168;8.210;2023-07-13T08:30:54;2.88;;;0.77;;
19605;SDS011;9950;50.168;8.210;2023-07-13T08:33:22;3.20;;;0.80;;
19605;SDS011;9950;50.168;8.210;2023-07-13T08:35:50;1.38;;;0.60;;
19605;SDS011;9950;50.168;8.210;2023-07-13T08:38:17;2.45;;;0.80;;
19605;SDS011;9950;50.168;8.210;2023-07-13T08:40:45;1.80;;;0.70;;
19605;SDS011;9950;50.168;8.210;2023-07-13T08:43:16;3.72;;;0.75;;
19605;SDS011;9950;50.168;8.210;2023-07-13T08:45:44;1.02;;;0.70;;
19605;SDS011;9950;50.168;8.210;2023-07-13T08:48:14;2.70;;;0.70;;
19605;SDS011;9950;50.168;8.210;2023-07-13T08:50:47;1.15;;;0.77;;
19605;SDS011;9950;50.168;8.210;2023-07-13T08:53:16;3.72;;;1.10;;
19605;SDS011;9950;50.168;8.210;2023-07-13T08:55:43;0.80;;;0.70;;
19605;SDS011;9950;50.168;8.210;2023-07-13T08:58:11;1.65;;;0.70;;
19605;SDS011;9950;50.168;8.210;2023-07-13T09:00:41;1.75;;;0.80;;
19605;SDS011;9950;50.168;8.210;2023-07-13T09:03:12;2.55;;;0.88;;
19605;SDS011;9950;50.168;8.210;2023-07-13T09:05:47;2.63;;;1.00;;
19605;SDS011;9950;50.168;8.210;2023-07-13T09:08:21;1.98;;;1.08;;
19605;SDS011;9950;50.168;8.210;2023-07-13T09:10:52;1.52;;;0.60;;
19605;SDS011;9950;50.168;8.210;2023-07-13T09:13:23;2.75;;;0.98;;
19605;SDS011;9950;50.168;8.210;2023-07-13T09:15:53;3.03;;;0.93;;
19605;SDS011;9950;50.168;8.210;2023-07-13T09:18:21;1.02;;;0.52;;
19605;SDS011;9950;50.168;8.210;2023-07-13T09:20:52;3.00;;;1.13;;
19605;SDS011;9950;50.168;8.210;2023-07-13T09:23:21;1.80;;;0.88;;
19605;SDS011;9950;50.168;8.210;2023-07-13T09:25:49;1.50;;;0.60;;
19605;SDS011;9950;50.168;8.210;2023-07-13T09:28:22;1.85;;;0.80;;
19605;SDS011;9950;50.168;8.210;2023-07-13T09:30:50;1.67;;;0.77;;
19605;SDS011;9950;50.168;8.210;2023-07-13T09:33:19;1.58;;;0.82;;
19605;SDS011;9950;50.168;8.210;2023-07-13T09:35:46;2.35;;;0.90;;
19605;SDS011;9950;50.168;8.210;2023-07-13T09:38:15;2.25;;;0.90;;
19605;SDS011;9950;50.168;8.210;2023-07-13T09:40:56;4.13;;;0.77;;
19605;SDS011;9950;50.168;8.210;2023-07-13T09:43:25;2.17;;;0.65;;
19605;SDS011;9950;50.168;8.210;2023-07-13T09:45:53;1.23;;;0.80;;
19605;SDS011;9950;50.168;8.210;2023-07-13T09:48:21;1.65;;;0.90;;
19605;SDS011;9950;50.168;8.210;2023-07-13T09:50:49;3.95;;;1.00;;
19605;SDS011;9950;50.168;8.210;2023-07-13T09:53:22;1.55;;;0.80;;
19605;SDS011;9950;50.168;8.210;2023-07-13T09:55:49;3.00;;;1.00;;
19605;SDS011;9950;50.168;8.210;2023-07-13T09:58:17;1.77;;;0.85;;
19605;SDS011;9950;50.168;8.210;2023-07-13T10:00:53;3.28;;;1.00;;
19605;SDS011;9950;50.168;8.210;2023-07-13T10:03:21;3.72;;;1.05;;
19605;SDS011;9950;50.168;8.210;2023-07-13T10:05:49;2.75;;;0.90;;
19605;SDS011;9950;50.168;8.210;2023-07-13T10:08:18;1.17;;;0.98;;
19605;SDS011;9950;50.168;8.210;2023-07-13T10:10:46;1.60;;;0.90;;
19605;SDS011;9950;50.168;8.210;2023-07-13T10:13:34;2.25;;;1.13;;
19605;SDS011;9950;50.168;8.210;2023-07-13T10:16:02;1.52;;;0.98;;
19605;SDS011;9950;50.168;8.210;2023-07-13T10:18:31;1.73;;;1.05;;
19605;SDS011;9950;50.168;8.210;2023-07-13T10:21:09;3.55;;;1.08;;
19605;SDS011;9950;50.168;8.210;2023-07-13T10:23:37;2.83;;;1.10;;
19605;SDS011;9950;50.168;8.210;2023-07-13T10:26:06;1.58;;;0.98;;
19605;SDS011;9950;50.168;8.210;2023-07-13T10:28:36;1.55;;;1.05;;
19605;SDS011;9950;50.168;8.210;2023-07-13T10:31:04;2.20;;;0.90;;
19605;SDS011;9950;50.168;8.210;2023-07-13T10:33:32;2.88;;;1.13;;
19605;SDS011;9950;50.168;8.210;2023-07-13T10:36:00;1.65;;;0.90;;
19605;SDS011;9950;50.168;8.210;2023-07-13T10:38:29;2.67;;;1.23;;
19605;SDS011;9950;50.168;8.210;2023-07-13T10:40:57;2.28;;;1.00;;
19605;SDS011;9950;50.168;8.210;2023-07-13T10:43:27;2.03;;;0.95;;
19605;SDS011;9950;50.168;8.210;2023-07-13T10:45:55;2.42;;;0.90;;
19605;SDS011;9950;50.168;8.210;2023-07-13T10:48:23;1.33;;;1.00;;
19605;SDS011;9950;50.168;8.210;2023-07-13T10:50:51;1.77;;;1.10;;
19605;SDS011;9950;50.168;8.210;2023-07-13T10:53:20;1.25;;;1.00;;
19605;SDS011;9950;50.168;8.210;2023-07-13T10:55:58;1.10;;;0.98;;
19605;SDS011;9950;50.168;8.210;2023-07-13T10:58:31;2.72;;;0.80;;
19605;SDS011;9950;50.168;8.210;2023-07-13T11:01:01;1.17;;;0.80;;
19605;SDS011;9950;50.168;8.210;2023-07-13T11:03:29;1.63;;;0.82;;
19605;SDS011;9950;50.168;8.210;2023-07-13T11:06:09;1.25;;;0.98;;
19605;SDS011;9950;50.168;8.210;2023-07-13T11:08:37;2.53;;;0.93;;
19605;SDS011;9950;50.168;8.210;2023-07-13T11:13:58;1.70;;;0.88;;
19605;SDS011;9950;50.168;8.210;2023-07-13T11:16:34;2.55;;;0.80;;
19605;SDS011;9950;50.168;8.210;2023-07-13T11:22:01;1.35;;;0.90;;
19605;SDS011;9950;50.168;8.210;2023-07-13T11:24:29;2.10;;;0.98;;
19605;SDS011;9950;50.168;8.210;2023-07-13T11:27:21;2.20;;;1.00;;
19605;SDS011;9950;50.168;8.210;2023-07-13T11:29:50;1.58;;;0.80;;
19605;SDS011;9950;50.168;8.210;2023-07-13T11:32:21;3.17;;;1.17;;
19605;SDS011;9950;50.168;8.210;2023-07-13T11:34:49;2.25;;;0.95;;
19605;SDS011;9950;50.168;8.210;2023-07-13T11:37:16;3.63;;;1.05;;
19605;SDS011;9950;50.168;8.210;2023-07-13T11:39:44;1.38;;;1.00;;
19605;SDS011;9950;50.168;8.210;2023-07-13T11:42:15;5.30;;;1.35;;
19605;SDS011;9950;50.168;8.210;2023-07-13T11:44:44;2.22;;;1.00;;
19605;SDS011;9950;50.168;8.210;2023-07-13T11:47:16;2.45;;;0.90;;
19605;SDS011;9950;50.168;8.210;2023-07-13T11:49:47;3.65;;;1.00;;
19605;SDS011;9950;50.168;8.210;2023-07-13T11:52:17;5.00;;;1.30;;
19605;SDS011;9950;50.168;8.210;2023-07-13T11:54:46;2.03;;;0.93;;
19605;SDS011;9950;50.168;8.210;2023-07-13T11:57:19;1.77;;;1.02;;
19605;SDS011;9950;50.168;8.210;2023-07-13T11:59:49;1.42;;;1.02;;
19605;SDS011;9950;50.168;8.210;2023-07-13T12:02:20;1.85;;;1.08;;
19605;SDS011;9950;50.168;8.210;2023-07-13T12:04:51;2.60;;;0.93;;
19605;SDS011;9950;50.168;8.210;2023-07-13T12:07:18;3.00;;;0.90;;
19605;SDS011;9950;50.168;8.210;2023-07-13T12:09:45;2.53;;;0.90;;
19605;SDS011;9950;50.168;8.210;2023-07-13T12:12:17;4.22;;;1.10;;
19605;SDS011;9950;50.168;8.210;2023-07-13T12:14:44;1.48;;;1.05;;
19605;SDS011;9950;50.168;8.210;2023-07-13T12:17:15;1.65;;;1.00;;
19605;SDS011;9950;50.168;8.210;2023-07-13T12:19:44;4.18;;;1.10;;
19605;SDS011;9950;50.168;8.210;2023-07-13T12:22:12;3.33;;;1.08;;
19605;SDS011;9950;50.168;8.210;2023-07-13T12:24:40;3.45;;;1.08;;
19605;SDS011;9950;50.168;8.210;2023-07-13T12:27:13;1.85;;;0.90;;
19605;SDS011;9950;50.168;8.210;2023-07-13T12:29:48;2.10;;;1.08;;
19605;SDS011;9950;50.168;8.210;2023-07-13T12:32:17;2.10;;;0.95;;
19605;SDS011;9950;50.168;8.210;2023-07-13T12:34:53;1.55;;;0.90;;
19605;SDS011;9950;50.168;8.210;2023-07-13T12:37:21;1.25;;;0.93;;
19605;SDS011;9950;50.168;8.210;2023-07-13T12:39:48;3.67;;;0.98;;
19605;SDS011;9950;50.168;8.210;2023-07-13T12:42:19;3.88;;;1.20;;
19605;SDS011;9950;50.168;8.210;2023-07-13T12:44:48;1.65;;;0.85;;
19605;SDS011;9950;50.168;8.210;2023-07-13T12:47:16;3.58;;;1.10;;
19605;SDS011;9950;50.168;8.210;2023-07-13T12:49:47;1.98;;;0.85;;
19605;SDS011;9950;50.168;8.210;2023-07-13T12:52:17;2.45;;;1.05;;
19605;SDS011;9950;50.168;8.210;2023-07-13T12:54:54;2.22;;;1.17;;
19605;SDS011;9950;50.168;8.210;2023-07-13T12:57:22;2.58;;;0.98;;
19605;SDS011;9950;50.168;8.210;2023-07-13T12:59:51;1.88;;;0.95;;
19605;SDS011;9950;50.168;8.210;2023-07-13T13:02:21;3.42;;;1.38;;
19605;SDS011;9950;50.168;8.210;2023-07-13T13:04:49;3.45;;;1.48;;
19605;SDS011;9950;50.168;8.210;2023-07-13T13:07:18;2.47;;;1.23;;
19605;SDS011;9950;50.168;8.210;2023-07-13T13:09:45;3.67;;;1.23;;
19605;SDS011;9950;50.168;8.210;2023-07-13T13:12:13;3.28;;;1.27;;
19605;SDS011;9950;50.168;8.210;2023-07-13T13:14:40;3.65;;;0.98;;
19605;SDS011;9950;50.168;8.210;2023-07-13T13:17:11;5.25;;;1.25;;
19605;SDS011;9950;50.168;8.210;2023-07-13T13:19:45;1.40;;;0.90;;
19605;SDS011;9950;50.168;8.210;2023-07-13T13:22:12;3.30;;;1.08;;
19605;SDS011;9950;50.168;8.210;2023-07-13T13:24:41;4.85;;;1.25;;
19605;SDS011;9950;50.168;8.210;2023-07-13T13:27:12;5.65;;;1.25;;
19605;SDS011;9950;50.168;8.210;2023-07-13T13:29:42;2.10;;;1.17;;
19605;SDS011;9950;50.168;8.210;2023-07-13T13:32:10;1.88;;;0.85;;
19605;SDS011;9950;50.168;8.210;2023-07-13T13:34:38;1.90;;;1.10;;
19605;SDS011;9950;50.168;8.210;2023-07-13T13:37:09;5.90;;;1.23;;
19605;SDS011;9950;50.168;8.210;2023-07-13T13:39:44;2.28;;;0.80;;
19605;SDS011;9950;50.168;8.210;2023-07-13T13:42:12;3.00;;;1.20;;
19605;SDS011;9950;50.168;8.210;2023-07-13T13:44:39;3.13;;;1.33;;
19605;SDS011;9950;50.168;8.210;2023-07-13T13:47:11;4.22;;;1.05;;
19605;SDS011;9950;50.168;8.210;2023-07-13T13:49:40;3.35;;;1.17;;
19605;SDS011;9950;50.168;8.210;2023-07-13T13:52:08;4.40;;;1.23;;
19605;SDS011;9950;50.168;8.210;2023-07-13T13:54:36;1.08;;;0.88;;
19605;SDS011;9950;50.168;8.210;2023-07-13T13:57:05;3.83;;;1.10;;
19605;SDS011;9950;50.168;8.210;2023-07-13T13:59:32;1.73;;;1.00;;
19605;SDS011;9950;50.168;8.210;2023-07-13T14:02:07;2.88;;;1.38;;
19605;SDS011;9950;50.168;8.210;2023-07-13T14:04:37;2.75;;;1.23;;
19605;SDS011;9950;50.168;8.210;2023-07-13T14:07:04;2.88;;;1.35;;
19605;SDS011;9950;50.168;8.210;2023-07-13T14:09:32;4.55;;;1.38;;
19605;SDS011;9950;50.168;8.210;2023-07-13T14:11:59;2.25;;;1.20;;
19605;SDS011;9950;50.168;8.210;2023-07-13T14:14:27;1.10;;;0.90;;
19605;SDS011;9950;50.168;8.210;2023-07-13T14:16:55;1.50;;;0.90;;
19605;SDS011;9950;50.168;8.210;2023-07-13T14:19:22;1.42;;;0.90;;
19605;SDS011;9950;50.168;8.210;2023-07-13T14:21:49;5.18;;;1.48;;
19605;SDS011;9950;50.168;8.210;2023-07-13T14:24:18;2.30;;;0.90;;
19605;SDS011;9950;50.168;8.210;2023-07-13T14:26:46;2.80;;;1.00;;
19605;SDS011;9950;50.168;8.210;2023-07-13T14:29:14;5.07;;;1.13;;
19605;SDS011;9950;50.168;8.210;2023-07-13T14:31:44;3.42;;;1.70;;
19605;SDS011;9950;50.168;8.210;2023-07-13T14:34:11;3.45;;;1.10;;
19605;SDS011;9950;50.168;8.210;2023-07-13T14:36:40;2.70;;;1.10;;
19605;SDS011;9950;50.168;8.210;2023-07-13T14:39:11;3.20;;;1.00;;
19605;SDS011;9950;50.168;8.210;2023-07-13T14:41:38;2.45;;;1.10;;
19605;SDS011;9950;50.168;8.210;2023-07-13T14:44:10;1.05;;;0.82;;
19605;SDS011;9950;50.168;8.210;2023-07-13T14:46:37;1.23;;;0.80;;
19605;SDS011;9950;50.168;8.210;2023-07-13T14:49:07;1.40;;;0.95;;
19605;SDS011;9950;50.168;8.210;2023-07-13T14:51:36;2.60;;;0.80;;
19605;SDS011;9950;50.168;8.210;2023-07-13T14:54:04;1.45;;;0.90;;
19605;SDS011;9950;50.168;8.210;2023-07-13T14:56:32;3.22;;;1.27;;
19605;SDS011;9950;50.168;8.210;2023-07-13T14:58:59;3.35;;;1.23;;
19605;SDS011;9950;50.168;8.210;2023-07-13T15:01:26;2.65;;;1.25;;
19605;SDS011;9950;50.168;8.210;2023-07-13T15:03:55;2.80;;;0.98;;
19605;SDS011;9950;50.168;8.210;2023-07-13T15:06:24;2.38;;;1.00;;
19605;SDS011;9950;50.168;8.210;2023-07-13T15:08:51;1.75;;;1.13;;
19605;SDS011;9950;50.168;8.210;2023-07-13T15:11:18;2.33;;;1.08;;
19605;SDS011;9950;50.168;8.210;2023-07-13T15:13:45;1.88;;;1.10;;
19605;SDS011;9950;50.168;8.210;2023-07-13T15:16:15;1.70;;;1.13;;